Austin Straubel International Airport
KGRB : now visible

Airfield :











YOU CAN JOIN US ON...

 
LOGIN :

Register | Disclaimer

   EN    FR    IT 

 









Legend :    VFR   Marginal VFR   IFR   Intensive IFR   Very Intensive IFR
Visi :
Ceiling :
>= 8 km
>= 3000ft
5 to 8 km
1000 to 3000 ft
1500m to 5 km
500 to 1000 ft
800 to 1500m
200 to 500 ft
< 800m
< 200 ft
Symbols :   Thunderstorms  Fog  Heavy snow  Heavy precipitations  Wind > 20 kt






- Airport Elevation : 695 ft
- IATA code : GRB


KGRB - Austin Straubel International

CURRENT METAR :
  • 081953Z 19007KT 10SM CLR 25/22 A3000 RMK AO2 SLP157 T02500217

EXPIRED METARs :
  • 081853Z 14006KT 6SM BR FEW041 SCT075 BKN110 23/21 A3001 RMK AO2 RAE21B25E52 TSE17 SLP160 P0021 T02280211
  • 081848Z 5SM -RA BR FEW037 SCT055 BKN080 22/21 A3001 RMK AO2 RAE21B25 TSE17 P0021
  • 081823Z 21003KT 8SM VCTS FEW022 BKN060 OVC095 21/20 A3003 RMK AO2 LTG DSNT ALQDS RAE21 TSE17 P0020 T02110200
  • 081815Z 19005KT 7SM -TSRA FEW025 BKN055 OVC070 21/19 A3003 RMK AO2 LTG DSNT E P0020 T02110194
  • 081808Z 18006KT 2 1/2SM -TSRA BR SCT025 BKN060 OVC090 21/19 A3003 RMK AO2 LTG DSNT E AND W P0020 T02060194
  • 081753Z 20008KT 1SM +TSRA BR SCT030 BKN060 OVC095 21/19 A3003 RMK AO2 LTG DSNT E AND S TSB1654E32B51 SLP168 P0031 60046 T02060194 10222 20194 58008 RVRNO
  • 081726Z 3SM -TSRA BR FEW025 OVC060 21/19 A3003 RMK AO2 LTG DSNT ALQDS TSB1654 P0015 T02060189
  • 081715Z 1 1/2SM TSRA BR FEW027 OVC060 20/19 A3003 RMK AO2 VIS 1/2V5 LTG DSNT ALQDS TSB1654 P0006 T02000189

TAF KGRB
Valid from the 08 at 18:00 until the 09 at 18:00 UTC


081733Z 0818/0918 20007KT P6SM VCTS SCT030 BKN060CB
TEMPO 0818/0819 3SM TSRA BKN030CB
FM082000 21008G16KT P6SM BKN050
FM090100 21006KT P6SM BKN050
FM090800 22005KT 4SM BR SCT050
FM091300 21010KT P6SM SCT050
KZMP FIR / North America



MET'MAP, your aeronautical weather chart ! - Copyright ORBIFLY December 2007 - Disclaimer

ORBIFLY MET'MAP TEAM :

Programming & Development : Alexandra Zaïnal
Concept & original design : Baudouin d'Aumeries
Assistance for programming : Marc-Olivier Méhu
Technical & hardware support : Manuel Goepfert

Contact : metmap@orbifly.com




SOURCES & CREDITS :

   NOAA       Earth
Advisory